createdAt,value
2018-07-22T00:00:28.986Z,100609.61
2018-07-22T00:02:33.893Z,100607.89
2018-07-22T00:04:39.473Z,100615.19
2018-07-22T00:06:44.289Z,100615.59
2018-07-22T00:08:49.983Z,100619.98
2018-07-22T00:10:55.374Z,100617.38
2018-07-22T00:13:00.719Z,100622.97
2018-07-22T00:15:07.370Z,100630.29
2018-07-22T00:17:12.192Z,100626.34
2018-07-22T00:19:16.973Z,100626.77
2018-07-22T00:21:21.731Z,100619.30
2018-07-22T00:23:26.945Z,100621.91
2018-07-22T00:25:31.858Z,100624.05
2018-07-22T00:27:37.437Z,100622.02
2018-07-22T00:29:42.307Z,100622.48
2018-07-22T00:31:47.743Z,100627.31
2018-07-22T00:33:52.585Z,100623.75
2018-07-22T00:35:57.521Z,100622.48
2018-07-22T00:38:02.441Z,100626.26
2018-07-22T00:40:08.365Z,100625.47
2018-07-22T00:42:13.360Z,100622.73
2018-07-22T00:44:18.152Z,100629.98
2018-07-22T00:46:22.973Z,100620.38
2018-07-22T00:48:27.822Z,100626.00
2018-07-22T00:50:33.322Z,100619.88
2018-07-22T00:52:38.407Z,100625.08
2018-07-22T00:54:43.163Z,100625.52
2018-07-22T00:56:48.132Z,100622.91
2018-07-22T00:58:52.946Z,100626.82
2018-07-22T01:00:57.650Z,100638.49
2018-07-22T01:03:02.427Z,100631.40
2018-07-22T01:05:07.774Z,100642.67
2018-07-22T01:07:12.549Z,100642.98
2018-07-22T01:09:17.394Z,100643.00
2018-07-22T01:11:22.149Z,100638.68
2018-07-22T01:13:26.956Z,100634.39
2018-07-22T01:15:31.801Z,100635.66
2018-07-22T01:17:36.662Z,100631.52
2018-07-22T01:19:41.198Z,100635.36
2018-07-22T01:21:46.164Z,100642.73
2018-07-22T01:23:51.100Z,100638.13
2018-07-22T01:25:55.934Z,100638.07
2018-07-22T01:28:00.778Z,100628.12
2018-07-22T01:30:07.408Z,100553.52
2018-07-22T01:32:12.134Z,100630.69
2018-07-22T01:34:16.943Z,100621.33
2018-07-22T01:36:21.663Z,100633.62
2018-07-22T01:38:26.377Z,100625.93
2018-07-22T01:40:31.273Z,100621.03
2018-07-22T01:42:35.978Z,100633.98
2018-07-22T01:44:40.719Z,100629.13
2018-07-22T01:46:45.556Z,100631.59
2018-07-22T01:51:06.089Z,100635.34
2018-07-22T01:53:10.785Z,100626.22
2018-07-22T01:55:15.647Z,100595.97
2018-07-22T01:57:20.481Z,100638.13
2018-07-22T01:59:25.391Z,100637.66
2018-07-22T02:01:30.159Z,100646.23
2018-07-22T02:03:35.178Z,100640.33
2018-07-22T02:05:41.018Z,100642.41
2018-07-22T02:07:45.823Z,100640.64
2018-07-22T02:09:50.673Z,100645.19
2018-07-22T02:11:55.665Z,100644.61
2018-07-22T02:14:00.589Z,100637.70
2018-07-22T02:16:05.399Z,100649.52
2018-07-22T02:18:11.939Z,100642.86
2018-07-22T02:20:17.042Z,100643.17
2018-07-22T02:22:21.772Z,100647.73
2018-07-22T02:24:26.467Z,100646.73
2018-07-22T02:26:31.324Z,100652.64
2018-07-22T02:28:36.311Z,100652.97
2018-07-22T02:30:41.260Z,100654.30
2018-07-22T02:32:46.237Z,100657.52
2018-07-22T02:34:51.120Z,100657.79
2018-07-22T02:36:55.973Z,100656.66
2018-07-22T02:39:00.716Z,100658.17
2018-07-22T02:41:05.678Z,100659.88
2018-07-22T02:43:10.575Z,100662.38
2018-07-22T02:45:15.320Z,100661.59
2018-07-22T02:47:29.130Z,100649.57
2018-07-22T02:49:33.856Z,100658.94
2018-07-22T02:51:38.858Z,100655.92
2018-07-22T02:53:43.636Z,100649.11
2018-07-22T02:55:48.470Z,100651.59
2018-07-22T02:57:53.309Z,100658.43
2018-07-22T02:59:58.120Z,100663.02
2018-07-22T03:02:02.922Z,100661.53
2018-07-22T03:04:09.010Z,100662.06
2018-07-22T03:06:14.046Z,100665.14
2018-07-22T03:08:19.426Z,100662.49
2018-07-22T03:10:25.389Z,100662.09
2018-07-22T03:12:30.246Z,100663.88
2018-07-22T03:14:35.141Z,100662.67
2018-07-22T03:16:39.908Z,100659.51
2018-07-22T03:18:44.944Z,100659.85
2018-07-22T03:20:49.780Z,100664.06
2018-07-22T03:22:54.526Z,100664.73
2018-07-22T03:24:59.237Z,100667.05
2018-07-22T03:27:03.962Z,100671.34
2018-07-22T03:29:08.717Z,100672.98
2018-07-22T03:31:13.556Z,100675.09
2018-07-22T03:33:18.411Z,100680.49
2018-07-22T03:35:23.285Z,100686.78
2018-07-22T03:37:28.142Z,100683.91
2018-07-22T03:39:32.865Z,100692.14
2018-07-22T03:41:37.590Z,100695.66
2018-07-22T03:43:42.368Z,100693.48
2018-07-22T03:45:47.186Z,100697.18
2018-07-22T03:47:51.945Z,100706.69
2018-07-22T03:49:56.723Z,100708.06
2018-07-22T03:52:01.818Z,100694.42
2018-07-22T03:54:06.632Z,100709.75
2018-07-22T03:56:11.409Z,100703.15
2018-07-22T03:58:16.304Z,100712.28
2018-07-22T04:00:21.145Z,100713.40
2018-07-22T04:02:25.836Z,100715.86
2018-07-22T04:04:30.605Z,100717.95
2018-07-22T04:06:36.419Z,100714.08
2018-07-22T04:08:41.456Z,100718.79
2018-07-22T04:10:46.489Z,100719.13
2018-07-22T04:12:51.219Z,100725.91
2018-07-22T04:14:56.354Z,100725.94
2018-07-22T04:17:01.109Z,100723.90
2018-07-22T04:19:05.835Z,100726.94
2018-07-22T04:21:10.668Z,100719.75
2018-07-22T04:23:15.457Z,100724.62
2018-07-22T04:25:20.164Z,100725.20
2018-07-22T04:27:24.994Z,100720.97
2018-07-22T04:29:29.854Z,100724.57
2018-07-22T04:31:35.074Z,100717.97
2018-07-22T04:33:39.900Z,100723.05
2018-07-22T04:35:44.860Z,100724.85
2018-07-22T04:37:49.553Z,100710.00
2018-07-22T04:39:54.530Z,100724.98
2018-07-22T04:41:59.458Z,100727.11
2018-07-22T04:44:04.168Z,100727.08
2018-07-22T04:46:09.059Z,100727.44
2018-07-22T04:48:13.920Z,100735.56
2018-07-22T04:50:18.853Z,100737.81
2018-07-22T04:52:23.705Z,100703.12
2018-07-22T04:54:28.468Z,100742.19
2018-07-22T04:56:33.467Z,100745.55
2018-07-22T04:58:38.218Z,100737.93
2018-07-22T05:00:43.105Z,100746.78
2018-07-22T05:02:47.913Z,100743.02
2018-07-22T05:04:52.785Z,100752.03
2018-07-22T05:06:57.629Z,100752.75
2018-07-22T05:09:02.394Z,100745.94
2018-07-22T05:11:08.176Z,100712.62
2018-07-22T05:13:12.964Z,100745.89
2018-07-22T05:15:17.922Z,100748.81
2018-07-22T05:17:23.545Z,100750.81
2018-07-22T05:19:28.336Z,100734.35
2018-07-22T05:21:33.051Z,100748.63
2018-07-22T05:23:37.895Z,100747.94
2018-07-22T05:25:42.806Z,100748.50
2018-07-22T05:27:47.551Z,100749.43
2018-07-22T05:29:52.304Z,100743.14
2018-07-22T05:31:57.234Z,100746.21
2018-07-22T05:34:02.351Z,100748.38
2018-07-22T05:36:07.869Z,100748.64
2018-07-22T05:38:12.917Z,100759.89
2018-07-22T05:40:17.643Z,100759.37
2018-07-22T05:42:22.543Z,100761.91
2018-07-22T05:44:27.673Z,100763.48
2018-07-22T05:46:32.734Z,100766.06
2018-07-22T05:48:38.173Z,100768.55
2018-07-22T05:50:43.655Z,100768.73
2018-07-22T05:52:49.634Z,100769.61
2018-07-22T05:54:54.480Z,100776.36
2018-07-22T05:56:59.386Z,100780.76
2018-07-22T05:59:04.437Z,100775.70
2018-07-22T06:01:13.505Z,100771.98
2018-07-22T06:03:18.576Z,100784.22
2018-07-22T06:05:23.330Z,100784.52
2018-07-22T06:07:28.235Z,100788.59
2018-07-22T06:09:33.020Z,100785.59
2018-07-22T06:11:38.081Z,100790.08
2018-07-22T06:13:44.090Z,100785.50
2018-07-22T06:15:49.089Z,100784.65
2018-07-22T06:17:53.861Z,100782.00
2018-07-22T06:19:58.795Z,100786.37
2018-07-22T06:22:03.499Z,100777.45
2018-07-22T06:24:08.559Z,100777.66
2018-07-22T06:26:13.428Z,100766.67
2018-07-22T06:30:18.474Z,100788.98
2018-07-22T06:32:23.505Z,100790.64
2018-07-22T06:34:28.386Z,100794.83
2018-07-22T06:36:34.070Z,100775.38
2018-07-22T06:38:38.849Z,100790.95
2018-07-22T06:40:43.971Z,100789.52
2018-07-22T06:42:48.875Z,100793.30
2018-07-22T06:44:54.020Z,100796.13
2018-07-22T06:46:58.793Z,100797.72
2018-07-22T06:49:03.705Z,100795.38
2018-07-22T06:51:08.540Z,100795.12
2018-07-22T06:53:13.671Z,100796.11
2018-07-22T06:55:18.759Z,100799.26
2018-07-22T06:57:23.798Z,100807.20
2018-07-22T06:59:28.936Z,100810.56
2018-07-22T07:01:34.250Z,100799.45
2018-07-22T07:03:39.247Z,100802.56
2018-07-22T07:05:43.703Z,100809.12
2018-07-22T07:07:49.432Z,100817.34
2018-07-22T07:09:54.232Z,100816.87
2018-07-22T07:11:59.034Z,100816.79
2018-07-22T07:14:03.913Z,100814.58
2018-07-22T07:16:08.759Z,100812.11
2018-07-22T07:18:13.549Z,100813.95
2018-07-22T07:20:18.328Z,100808.84
2018-07-22T07:22:23.639Z,100811.17
2018-07-22T07:24:28.389Z,100812.83
2018-07-22T07:26:33.183Z,100816.64
2018-07-22T07:28:38.701Z,100822.66
2018-07-22T07:30:43.720Z,100808.60
2018-07-22T07:32:48.619Z,100816.32
2018-07-22T07:34:53.364Z,100825.36
2018-07-22T07:36:58.197Z,100834.89
2018-07-22T07:39:03.084Z,100831.91
2018-07-22T07:41:08.277Z,100823.26
2018-07-22T07:43:13.149Z,100816.84
2018-07-22T07:45:17.822Z,100823.30
2018-07-22T07:47:24.583Z,100828.41
2018-07-22T07:49:29.390Z,100826.95
2018-07-22T07:51:34.594Z,100823.45
2018-07-22T07:53:39.518Z,100821.71
2018-07-22T07:55:44.332Z,100822.98
2018-07-22T07:57:49.130Z,100812.57
2018-07-22T07:59:54.874Z,100827.02
2018-07-22T08:01:59.913Z,100827.28
2018-07-22T08:04:04.790Z,100833.83
2018-07-22T08:06:09.844Z,100827.83
2018-07-22T08:08:14.631Z,100825.21
2018-07-22T08:10:19.480Z,100819.19
2018-07-22T08:12:24.271Z,100820.72
2018-07-22T08:14:29.340Z,100824.66
2018-07-22T08:16:35.034Z,100815.56
2018-07-22T08:18:39.967Z,100814.39
2018-07-22T08:20:44.783Z,100820.11
2018-07-22T08:22:49.609Z,100819.91
2018-07-22T08:24:54.406Z,100825.45
2018-07-22T08:26:59.285Z,100820.77
2018-07-22T08:29:29.214Z,100820.45
2018-07-22T08:31:34.036Z,100824.05
2018-07-22T08:33:38.820Z,100824.72
2018-07-22T08:35:43.684Z,100824.76
2018-07-22T08:37:49.264Z,100826.87
2018-07-22T08:39:55.364Z,100824.00
2018-07-22T08:42:00.470Z,100819.26
2018-07-22T08:44:05.328Z,100822.41
2018-07-22T08:46:10.267Z,100819.80
2018-07-22T08:48:15.165Z,100816.36
2018-07-22T08:50:20.193Z,100818.99
2018-07-22T08:52:24.953Z,100825.61
2018-07-22T08:54:30.499Z,100825.48
2018-07-22T08:56:35.461Z,100822.91
2018-07-22T08:58:40.163Z,100826.05
2018-07-22T09:00:44.563Z,100819.08
2018-07-22T09:02:49.342Z,100825.17
2018-07-22T09:04:54.163Z,100832.63
2018-07-22T09:06:59.110Z,100829.63
2018-07-22T09:09:06.720Z,100832.63
2018-07-22T09:11:11.632Z,100833.08
2018-07-22T09:13:16.663Z,100837.89
2018-07-22T09:15:21.900Z,100841.44
2018-07-22T09:17:27.066Z,100837.98
2018-07-22T09:19:32.268Z,100838.42
2018-07-22T09:21:37.472Z,100841.44
2018-07-22T09:23:42.959Z,100844.95
2018-07-22T09:25:47.543Z,100837.95
2018-07-22T09:27:55.515Z,100846.69
2018-07-22T09:30:00.609Z,100826.66
2018-07-22T09:32:05.672Z,100842.33
2018-07-22T09:34:10.546Z,100851.48
2018-07-22T09:36:15.568Z,100848.86
2018-07-22T09:38:20.460Z,100851.50
2018-07-22T09:40:25.398Z,100849.73
2018-07-22T09:42:30.417Z,100843.18
2018-07-22T09:44:35.456Z,100852.78
2018-07-22T09:46:40.748Z,100851.41
2018-07-22T09:48:45.927Z,100853.17
2018-07-22T09:50:51.325Z,100851.82
2018-07-22T09:52:56.297Z,100846.21
2018-07-22T09:55:01.695Z,100863.20
2018-07-22T09:57:06.873Z,100866.70
2018-07-22T09:59:12.321Z,100864.92
2018-07-22T10:01:18.308Z,100857.11
2018-07-22T10:03:25.100Z,100851.44
2018-07-22T10:05:30.193Z,100845.39
2018-07-22T10:07:34.926Z,100855.83
2018-07-22T10:09:40.664Z,100853.13
2018-07-22T10:11:45.665Z,100850.13
2018-07-22T10:13:50.685Z,100852.73
2018-07-22T10:15:55.830Z,100852.69
2018-07-22T10:18:00.939Z,100850.52
2018-07-22T10:20:05.862Z,100856.54
2018-07-22T10:22:10.904Z,100853.94
2018-07-22T10:24:16.231Z,100853.84
2018-07-22T10:26:21.387Z,100845.92
2018-07-22T10:28:26.338Z,100841.59
2018-07-22T10:30:31.529Z,100844.71
2018-07-22T10:32:37.429Z,100852.03
2018-07-22T10:34:42.667Z,100851.05
2018-07-22T10:36:47.816Z,100842.84
2018-07-22T10:38:52.528Z,100853.98
2018-07-22T10:40:58.205Z,100848.81
2018-07-22T10:43:03.351Z,100855.73
2018-07-22T10:45:08.310Z,100856.20
2018-07-22T10:47:13.741Z,100856.50
2018-07-22T10:49:21.496Z,100851.22
2018-07-22T10:51:26.605Z,100840.62
2018-07-22T10:53:31.762Z,100849.60
2018-07-22T10:55:36.832Z,100847.47
2018-07-22T10:57:42.565Z,100843.45
2018-07-22T10:59:47.460Z,100838.94
2018-07-22T11:01:52.368Z,100833.28
2018-07-22T11:03:59.252Z,100840.14
2018-07-22T11:06:04.336Z,100831.25
2018-07-22T11:08:09.168Z,100843.05
2018-07-22T11:10:14.727Z,100828.59
2018-07-22T11:12:19.710Z,100838.86
2018-07-22T11:14:24.881Z,100827.19
2018-07-22T11:16:29.839Z,100827.28
2018-07-22T11:18:34.942Z,100834.88
2018-07-22T11:20:40.157Z,100838.05
2018-07-22T11:22:45.362Z,100832.70
2018-07-22T11:24:50.742Z,100833.80
2018-07-22T11:26:55.808Z,100818.48
2018-07-22T11:29:00.845Z,100833.37
2018-07-22T11:31:06.065Z,100823.08
2018-07-22T11:33:11.246Z,100829.86
2018-07-22T11:35:16.081Z,100830.73
2018-07-22T11:37:21.378Z,100827.44
2018-07-22T11:39:26.350Z,100826.92
2018-07-22T11:41:31.421Z,100839.75
2018-07-22T11:43:36.426Z,100829.23
2018-07-22T11:45:41.285Z,100829.85
2018-07-22T11:47:46.279Z,100819.99
2018-07-22T11:49:51.212Z,100826.41
2018-07-22T11:51:56.548Z,100812.81
2018-07-22T11:54:01.583Z,100815.01
2018-07-22T11:56:07.457Z,100815.70
2018-07-22T11:58:12.981Z,100818.52
2018-07-22T12:00:18.473Z,100814.69
2018-07-22T12:02:23.553Z,100811.08
2018-07-22T12:04:28.495Z,100813.38
2018-07-22T12:06:33.488Z,100816.87
2018-07-22T12:08:39.337Z,100813.52
2018-07-22T12:10:44.319Z,100805.00
2018-07-22T12:12:49.410Z,100800.67
2018-07-22T12:14:54.364Z,100808.59
2018-07-22T12:16:59.357Z,100802.70
2018-07-22T12:19:04.192Z,100790.18
2018-07-22T12:21:09.096Z,100788.77
2018-07-22T12:23:13.924Z,100787.28
2018-07-22T12:25:18.941Z,100789.16
2018-07-22T12:27:23.917Z,100778.88
2018-07-22T12:29:28.996Z,100783.56
2018-07-22T12:31:34.153Z,100782.70
2018-07-22T12:33:39.747Z,100788.41
2018-07-22T12:35:44.930Z,100722.52
2018-07-22T12:37:49.924Z,100781.59
2018-07-22T12:39:54.999Z,100776.48
2018-07-22T12:42:00.179Z,100776.56
2018-07-22T12:44:05.193Z,100762.37
2018-07-22T12:46:10.240Z,100777.88
2018-07-22T12:48:15.305Z,100772.80
2018-07-22T12:50:20.180Z,100777.83
2018-07-22T12:52:25.767Z,100771.14
2018-07-22T12:54:30.912Z,100778.27
2018-07-22T12:56:35.967Z,100774.75
2018-07-22T12:58:41.138Z,100762.77
2018-07-22T13:00:46.308Z,100779.75
2018-07-22T13:02:51.341Z,100778.88
2018-07-22T13:04:56.556Z,100771.75
2018-07-22T13:07:01.786Z,100772.08
2018-07-22T13:09:09.988Z,100769.01
2018-07-22T13:11:15.575Z,100768.25
2018-07-22T13:13:20.491Z,100780.13
2018-07-22T13:15:25.417Z,100770.23
2018-07-22T13:17:30.525Z,100776.19
2018-07-22T13:19:37.388Z,100780.09
2018-07-22T13:21:42.339Z,100777.23
2018-07-22T13:23:48.199Z,100773.05
2018-07-22T13:25:53.334Z,100771.52
2018-07-22T13:27:58.645Z,100769.61
2018-07-22T13:30:03.694Z,100769.70
2018-07-22T13:32:08.861Z,100773.34
2018-07-22T13:34:14.132Z,100770.39
2018-07-22T13:36:19.269Z,100774.78
2018-07-22T13:38:24.636Z,100773.50
2018-07-22T13:40:29.666Z,100776.58
2018-07-22T13:42:34.961Z,100781.70
2018-07-22T13:44:40.260Z,100769.07
2018-07-22T13:46:45.865Z,100783.78
2018-07-22T13:48:51.173Z,100767.62
2018-07-22T13:50:56.165Z,100782.40
2018-07-22T13:53:01.213Z,100771.49
2018-07-22T13:55:06.447Z,100776.44
2018-07-22T13:57:11.136Z,100772.55
2018-07-22T13:59:16.645Z,100773.89
2018-07-22T14:01:21.766Z,100782.66
2018-07-22T14:03:29.810Z,100784.95
2018-07-22T14:05:35.401Z,100777.50
2018-07-22T14:07:41.129Z,100777.78
2018-07-22T14:09:46.441Z,100779.70
2018-07-22T14:11:51.725Z,100777.20
2018-07-22T14:13:57.628Z,100785.80
2018-07-22T14:16:02.811Z,100785.54
2018-07-22T14:18:08.194Z,100786.21
2018-07-22T14:20:13.508Z,100790.70
2018-07-22T14:22:18.767Z,100784.05
2018-07-22T14:24:24.108Z,100788.95
2018-07-22T14:26:29.319Z,100777.23
2018-07-22T14:28:34.752Z,100782.54
2018-07-22T14:30:39.893Z,100782.49
2018-07-22T14:32:45.079Z,100779.59
2018-07-22T14:34:50.333Z,100781.52
2018-07-22T14:36:55.807Z,100780.53
2018-07-22T14:39:01.176Z,100778.23
2018-07-22T14:41:06.726Z,100775.69
2018-07-22T14:43:11.917Z,100777.08
2018-07-22T14:45:17.069Z,100777.13
2018-07-22T14:47:22.164Z,100784.89
2018-07-22T14:49:27.431Z,100775.95
2018-07-22T14:51:32.936Z,100772.98
2018-07-22T14:53:37.907Z,100774.66
2018-07-22T14:55:42.906Z,100777.38
2018-07-22T14:57:48.094Z,100783.03
2018-07-22T14:59:53.215Z,100786.39
2018-07-22T15:01:58.335Z,100788.14
2018-07-22T15:04:05.486Z,100777.42
2018-07-22T15:06:10.678Z,100780.49
2018-07-22T15:08:18.014Z,100787.77
2018-07-22T15:10:24.788Z,100795.09
2018-07-22T15:12:31.297Z,100787.98
2018-07-22T15:14:36.810Z,100781.06
2018-07-22T15:16:43.216Z,100783.69
2018-07-22T15:18:49.178Z,100778.92
2018-07-22T15:20:54.383Z,100776.52
2018-07-22T15:23:00.233Z,100783.15
2018-07-22T15:25:07.683Z,100786.77
2018-07-22T15:27:12.890Z,100782.33
2018-07-22T15:29:18.894Z,100784.58
2018-07-22T15:31:25.670Z,100782.69
2018-07-22T15:33:30.686Z,100788.63
2018-07-22T15:35:35.864Z,100787.08
2018-07-22T15:37:40.865Z,100792.36
2018-07-22T15:39:46.114Z,100783.71
2018-07-22T15:41:53.912Z,100780.41
2018-07-22T15:44:01.973Z,100773.86
2018-07-22T15:46:08.629Z,100774.26
2018-07-22T15:48:14.344Z,100777.36
2018-07-22T15:50:20.423Z,100778.80
2018-07-22T15:52:27.956Z,100782.75
2018-07-22T15:54:34.190Z,100786.64
2018-07-22T15:56:39.104Z,100783.52
2018-07-22T15:58:45.659Z,100772.83
2018-07-22T16:00:52.655Z,100779.84
2018-07-22T16:03:00.894Z,100790.14
2018-07-22T16:05:07.983Z,100785.22
2018-07-22T16:07:13.227Z,100785.06
2018-07-22T16:09:19.345Z,100782.14
2018-07-22T16:11:26.071Z,100781.50
2018-07-22T16:13:31.707Z,100781.17
2018-07-22T16:15:39.450Z,100788.59
2018-07-22T16:17:46.163Z,100782.11
2018-07-22T16:19:51.960Z,100786.97
2018-07-22T16:21:57.039Z,100783.11
2018-07-22T16:24:02.680Z,100774.94
2018-07-22T16:26:08.523Z,100775.03
2018-07-22T16:28:14.543Z,100778.70
2018-07-22T16:30:19.504Z,100780.15
2018-07-22T16:32:24.478Z,100775.59
2018-07-22T16:34:30.733Z,100779.47
2018-07-22T16:36:35.764Z,100775.94
2018-07-22T16:38:41.957Z,100772.66
2018-07-22T16:40:49.974Z,100781.67
2018-07-22T16:42:55.953Z,100771.60
2018-07-22T16:45:02.047Z,100775.47
2018-07-22T16:47:08.226Z,100768.69
2018-07-22T16:49:14.382Z,100761.78
2018-07-22T16:51:23.642Z,100770.39
2018-07-22T16:53:30.800Z,100773.87
2018-07-22T16:55:37.231Z,100768.05
2018-07-22T16:57:44.172Z,100767.38
2018-07-22T16:59:50.240Z,100767.23
2018-07-22T17:01:58.240Z,100762.37
2018-07-22T17:04:04.137Z,100774.38
2018-07-22T17:06:09.407Z,100767.02
2018-07-22T17:08:14.601Z,100768.07
2018-07-22T17:10:19.828Z,100771.91
2018-07-22T17:12:24.976Z,100773.86
2018-07-22T17:14:30.164Z,100779.75
2018-07-22T17:16:35.392Z,100772.66
2018-07-22T17:18:40.522Z,100771.58
2018-07-22T17:20:45.493Z,100779.33
2018-07-22T17:22:50.696Z,100776.81
2018-07-22T17:24:55.816Z,100772.28
2018-07-22T17:27:00.991Z,100773.39
2018-07-22T17:29:06.188Z,100775.66
2018-07-22T17:31:11.261Z,100773.58
2018-07-22T17:33:16.769Z,100777.94
2018-07-22T17:35:21.790Z,100773.06
2018-07-22T17:37:27.393Z,100778.25
2018-07-22T17:39:32.234Z,100778.82
2018-07-22T17:41:37.399Z,100766.59
2018-07-22T17:43:43.453Z,100774.63
2018-07-22T17:45:48.333Z,100770.44
2018-07-22T17:47:54.149Z,100775.75
2018-07-22T17:49:59.341Z,100764.84
2018-07-22T17:52:04.562Z,100776.24
2018-07-22T17:54:09.890Z,100785.31
2018-07-22T17:56:15.960Z,100786.73
2018-07-22T17:58:22.393Z,100787.47
2018-07-22T18:00:28.749Z,100779.37
2018-07-22T18:02:34.157Z,100777.91
2018-07-22T18:04:39.679Z,100785.40
2018-07-22T18:06:47.017Z,100788.34
2018-07-22T18:08:54.272Z,100779.34
2018-07-22T18:10:59.544Z,100783.14
2018-07-22T18:13:04.646Z,100788.37
2018-07-22T18:15:10.260Z,100784.11
2018-07-22T18:17:15.577Z,100786.84
2018-07-22T18:19:20.730Z,100795.84
2018-07-22T18:21:27.560Z,100792.84
2018-07-22T18:23:35.926Z,100794.94
2018-07-22T18:25:42.770Z,100791.59
2018-07-22T18:27:51.639Z,100794.30
2018-07-22T18:30:00.054Z,100797.39
2018-07-22T18:32:07.092Z,100799.27
2018-07-22T18:34:13.803Z,100798.36
2018-07-22T18:36:21.770Z,100795.66
2018-07-22T18:38:29.813Z,100798.38
2018-07-22T18:40:36.798Z,100798.91
2018-07-22T18:42:43.950Z,100799.05
2018-07-22T18:44:50.737Z,100800.05
2018-07-22T18:46:57.724Z,100800.92
2018-07-22T18:49:04.552Z,100811.08
2018-07-22T18:51:15.715Z,100804.62
2018-07-22T18:53:23.053Z,100806.42
2018-07-22T18:55:31.520Z,100802.57
2018-07-22T18:57:40.414Z,100803.16
2018-07-22T18:59:50.019Z,100807.59
2018-07-22T19:02:00.808Z,100811.16
2018-07-22T19:06:25.892Z,100805.63
2018-07-22T19:08:34.927Z,100804.86
2018-07-22T19:10:44.864Z,100813.64
2018-07-22T19:12:53.760Z,100810.22
2018-07-22T19:15:03.285Z,100820.39
2018-07-22T19:17:13.611Z,100823.48
2018-07-22T19:19:23.530Z,100823.55
2018-07-22T19:21:32.548Z,100828.83
2018-07-22T19:23:39.527Z,100830.21
2018-07-22T19:32:11.726Z,100847.20
2018-07-22T19:34:20.098Z,100848.50
2018-07-22T19:36:28.896Z,100855.59
2018-07-22T19:38:38.641Z,100852.42
2018-07-22T19:40:48.290Z,100856.36
2018-07-22T19:43:00.891Z,100854.28
2018-07-22T19:45:09.543Z,100856.06
2018-07-22T19:47:19.777Z,100857.09
2018-07-22T19:49:27.641Z,100871.61
2018-07-22T19:51:38.715Z,100869.44
2018-07-22T19:53:45.729Z,100866.78
2018-07-22T19:55:52.295Z,100866.89
2018-07-22T19:58:00.075Z,100880.82
2018-07-22T20:00:07.356Z,100869.85
2018-07-22T20:02:14.107Z,100880.39
2018-07-22T20:04:21.747Z,100873.45
2018-07-22T20:06:28.376Z,100881.37
2018-07-22T20:08:35.921Z,100879.23
2018-07-22T20:10:41.715Z,100884.45
2018-07-22T20:12:47.543Z,100881.39
2018-07-22T20:14:53.069Z,100882.70
2018-07-22T20:16:58.853Z,100887.52
2018-07-22T20:19:04.425Z,100888.42
2018-07-22T20:23:16.585Z,100896.75
2018-07-22T20:25:21.838Z,100895.87
2018-07-22T20:27:27.764Z,100903.73
2018-07-22T20:29:33.261Z,100904.64
2018-07-22T20:31:38.108Z,100912.00
2018-07-22T20:33:44.020Z,100910.30
2018-07-22T20:35:49.071Z,100910.27
2018-07-22T20:38:01.586Z,100913.36
2018-07-22T20:40:07.374Z,100919.43
2018-07-22T20:42:16.032Z,100917.27
2018-07-22T20:44:26.850Z,100922.50
2018-07-22T20:46:31.877Z,100916.39
2018-07-22T20:48:39.488Z,100916.84
2018-07-22T20:50:44.884Z,100926.42
2018-07-22T20:52:54.960Z,100927.73
2018-07-22T20:55:00.446Z,100925.11
2018-07-22T20:57:05.637Z,100929.47
2018-07-22T20:59:11.181Z,100933.41
2018-07-22T21:01:16.110Z,100932.11
2018-07-22T21:03:21.128Z,100934.28
2018-07-22T21:05:26.274Z,100933.41
2018-07-22T21:07:31.191Z,100933.38
2018-07-22T21:09:36.108Z,100933.85
2018-07-22T21:13:50.434Z,100937.30
2018-07-22T21:15:55.608Z,100942.09
2018-07-22T21:18:00.817Z,100944.27
2018-07-22T21:20:06.243Z,100943.34
2018-07-22T21:22:11.132Z,100942.47
2018-07-22T21:24:16.176Z,100942.48
2018-07-22T21:26:21.080Z,100946.80
2018-07-22T21:28:25.994Z,100943.30
2018-07-22T21:30:31.211Z,100952.45
2018-07-22T21:32:36.164Z,100948.53
2018-07-22T21:34:41.066Z,100951.12
2018-07-22T21:36:45.993Z,100954.61
2018-07-22T21:38:50.932Z,100949.41
2018-07-22T21:40:55.971Z,100953.30
2018-07-22T21:43:00.951Z,100950.64
2018-07-22T21:45:06.657Z,100954.10
2018-07-22T21:47:12.488Z,100951.49
2018-07-22T21:49:17.547Z,100957.99
2018-07-22T21:51:22.723Z,100953.66
2018-07-22T21:53:28.046Z,100945.80
2018-07-22T21:55:32.872Z,100954.91
2018-07-22T21:57:37.971Z,100953.15
2018-07-22T21:59:43.356Z,100963.59
2018-07-22T22:01:48.154Z,100964.41
2018-07-22T22:03:53.107Z,100958.28
2018-07-22T22:05:58.015Z,100957.84
2018-07-22T22:08:03.088Z,100963.97
2018-07-22T22:10:08.066Z,100961.31
2018-07-22T22:12:13.244Z,100961.72
2018-07-22T22:14:18.109Z,100958.64
2018-07-22T22:16:22.987Z,100959.86
2018-07-22T22:18:27.832Z,100960.72
2018-07-22T22:20:32.941Z,100954.62
2018-07-22T22:22:37.714Z,100964.20
2018-07-22T22:24:42.762Z,100965.05
2018-07-22T22:26:47.641Z,100965.02
2018-07-22T22:28:52.528Z,100965.86
2018-07-22T22:30:57.450Z,100962.82
2018-07-22T22:33:02.357Z,100969.75
2018-07-22T22:35:07.276Z,100967.59
2018-07-22T22:37:12.102Z,100960.54
2018-07-22T22:39:16.906Z,100969.63
2018-07-22T22:41:22.608Z,100969.14
2018-07-22T22:43:27.419Z,100970.00
2018-07-22T22:45:33.048Z,100971.74
2018-07-22T22:47:37.717Z,100973.84
2018-07-22T22:49:42.563Z,100976.37
2018-07-22T22:51:47.314Z,100979.41
2018-07-22T22:53:52.392Z,100982.02
2018-07-22T22:55:57.322Z,100979.83
2018-07-22T22:59:19.401Z,100979.77
2018-07-22T23:01:24.428Z,100973.19
2018-07-22T23:03:29.344Z,100979.28
2018-07-22T23:05:34.687Z,100957.83
2018-07-22T23:07:39.542Z,100977.45
2018-07-22T23:09:44.899Z,100976.10
2018-07-22T23:11:49.700Z,100974.84
2018-07-22T23:13:54.518Z,100972.20
2018-07-22T23:15:59.342Z,100979.66
2018-07-22T23:18:04.123Z,100960.45
2018-07-22T23:20:08.890Z,100981.81
2018-07-22T23:22:13.733Z,100978.35
2018-07-22T23:24:18.499Z,100983.59
2018-07-22T23:26:23.582Z,100980.52
2018-07-22T23:28:28.304Z,100979.70
2018-07-22T23:30:32.992Z,100981.88
2018-07-22T23:32:37.706Z,100978.82
2018-07-22T23:34:42.445Z,100976.69
2018-07-22T23:36:47.242Z,100974.99
2018-07-22T23:38:51.997Z,100966.66
2018-07-22T23:40:56.823Z,100974.01
2018-07-22T23:43:01.595Z,100975.00
2018-07-22T23:45:06.587Z,100978.11
2018-07-22T23:49:21.949Z,100971.39
2018-07-22T23:51:26.699Z,100970.95
2018-07-22T23:53:31.822Z,100978.35
2018-07-22T23:55:36.660Z,100970.06
2018-07-22T23:57:41.414Z,100977.41
2018-07-22T23:59:46.149Z,100970.38
